Time;durP1;ratioP1;P1;durP2;ratioP2;P2;SDS_P1;SDS_P2;PMS_P1;PMS_P2;Temp;Humidity;BMP_temperature;BMP_pressure;BME280_temperature;BME280_humidity;BME280_pressure;Samples;Min_cycle;Max_cycle;Signal;HPM_P1;HPM_P2
2023/06/15 00:00:59;;;;;;;10.60;7.20;;;;;;;;;;5029355;28;20455;-73
2023/06/15 00:03:28;;;;;;;11.60;7.05;;;;;;;;;;5019923;28;20889;-71
2023/06/15 00:05:57;;;;;;;14.05;7.07;;;;;;;;;;5021037;28;20029;-72
2023/06/15 00:08:24;;;;;;;11.23;7.68;;;;;;;;;;5022068;28;20132;-73
2023/06/15 00:10:52;;;;;;;12.82;7.30;;;;;;;;;;5015840;28;20041;-72
2023/06/15 00:13:20;;;;;;;12.37;6.97;;;;;;;;;;5027477;28;20041;-72
2023/06/15 00:15:48;;;;;;;13.85;7.35;;;;;;;;;;5022335;28;20040;-71
2023/06/15 00:18:20;;;;;;;14.20;6.78;;;;;;;;;;5019917;28;20141;-71
2023/06/15 00:20:49;;;;;;;14.15;6.95;;;;;;;;;;5020889;28;20037;-71
2023/06/15 00:23:18;;;;;;;12.65;6.88;;;;;;;;;;5003246;28;20041;-71
2023/06/15 00:25:45;;;;;;;11.80;7.47;;;;;;;;;;5018411;28;20044;-65
2023/06/15 00:28:13;;;;;;;12.68;7.20;;;;;;;;;;5010999;28;20043;-72
2023/06/15 00:30:41;;;;;;;12.70;7.80;;;;;;;;;;5025514;28;20051;-71
2023/06/15 00:33:08;;;;;;;14.93;7.13;;;;;;;;;;5016326;28;20041;-72
2023/06/15 00:35:38;;;;;;;10.40;7.07;;;;;;;;;;5024552;28;20104;-72
2023/06/15 00:38:05;;;;;;;11.03;6.33;;;;;;;;;;5019463;28;20502;-69
2023/06/15 00:40:33;;;;;;;10.45;7.50;;;;;;;;;;5022271;28;20139;-71
2023/06/15 00:43:01;;;;;;;14.05;7.32;;;;;;;;;;5012205;28;20056;-71
2023/06/15 00:45:29;;;;;;;10.85;6.75;;;;;;;;;;5022058;28;20060;-71
2023/06/15 00:47:56;;;;;;;12.48;6.80;;;;;;;;;;5016070;28;20036;-72
2023/06/15 00:50:25;;;;;;;13.17;6.87;;;;;;;;;;5026796;28;20033;-72
2023/06/15 00:52:55;;;;;;;16.70;6.90;;;;;;;;;;5003016;28;20067;-71
2023/06/15 00:55:24;;;;;;;12.07;6.70;;;;;;;;;;5019801;28;20525;-72
2023/06/15 00:57:52;;;;;;;11.98;6.38;;;;;;;;;;5022007;28;20063;-72
2023/06/15 01:00:20;;;;;;;11.00;6.10;;;;;;;;;;5004940;28;20055;-72
2023/06/15 01:02:50;;;;;;;13.00;6.33;;;;;;;;;;5034364;28;20069;-72
2023/06/15 01:05:19;;;;;;;11.50;6.22;;;;;;;;;;5008843;28;20149;-72
2023/06/15 01:07:48;;;;;;;11.02;6.25;;;;;;;;;;5018860;28;20037;-71
2023/06/15 01:10:20;;;;;;;11.23;6.32;;;;;;;;;;5015057;28;20048;-72
2023/06/15 01:12:50;;;;;;;12.38;6.30;;;;;;;;;;5020058;28;20041;-72
2023/06/15 01:15:19;;;;;;;16.07;6.87;;;;;;;;;;5006418;28;20564;-72
2023/06/15 01:17:47;;;;;;;11.90;6.43;;;;;;;;;;5020565;28;20135;-72
2023/06/15 01:20:17;;;;;;;12.50;7.03;;;;;;;;;;5012641;28;21152;-73
2023/06/15 01:22:55;;;;;;;11.40;6.90;;;;;;;;;;5014705;28;20044;-72
2023/06/15 01:25:29;;;;;;;13.13;6.93;;;;;;;;;;5011701;28;20037;-73
2023/06/15 01:28:01;;;;;;;17.07;6.20;;;;;;;;;;5026308;28;20041;-73
2023/06/15 01:30:32;;;;;;;13.98;6.70;;;;;;;;;;5020085;28;20046;-73
2023/06/15 01:32:59;;;;;;;10.77;6.22;;;;;;;;;;5012419;28;20037;-73
2023/06/15 01:35:27;;;;;;;11.70;6.55;;;;;;;;;;5017388;28;20055;-75
2023/06/15 01:37:57;;;;;;;12.38;6.05;;;;;;;;;;4981960;28;20219;-72
2023/06/15 01:40:27;;;;;;;10.37;6.17;;;;;;;;;;5004182;28;20517;-74
2023/06/15 01:42:55;;;;;;;12.98;6.53;;;;;;;;;;5017534;28;20052;-73
2023/06/15 01:45:27;;;;;;;16.35;5.55;;;;;;;;;;5015294;28;20080;-74
2023/06/15 01:47:55;;;;;;;11.25;5.57;;;;;;;;;;5027928;28;20498;-73
2023/06/15 01:50:23;;;;;;;12.02;7.35;;;;;;;;;;5017178;28;20427;-73
2023/06/15 01:52:51;;;;;;;13.23;6.80;;;;;;;;;;5012170;28;20037;-73
2023/06/15 01:55:19;;;;;;;10.23;5.97;;;;;;;;;;5019822;28;20544;-74
2023/06/15 01:57:47;;;;;;;11.25;6.32;;;;;;;;;;5023365;28;20041;-73
2023/06/15 02:00:15;;;;;;;11.52;6.35;;;;;;;;;;5009956;28;20063;-72
2023/06/15 02:02:44;;;;;;;15.77;7.25;;;;;;;;;;5025594;28;20402;-73
2023/06/15 02:05:12;;;;;;;11.93;6.70;;;;;;;;;;5019631;28;20521;-73
2023/06/15 02:07:40;;;;;;;12.70;6.82;;;;;;;;;;4979265;28;20910;-73
2023/06/15 02:10:09;;;;;;;11.65;6.78;;;;;;;;;;5023583;28;20044;-72
2023/06/15 02:12:37;;;;;;;18.90;7.53;;;;;;;;;;5016808;28;20041;-74
2023/06/15 02:15:05;;;;;;;17.25;7.20;;;;;;;;;;5016614;28;20119;-72
2023/06/15 02:17:38;;;;;;;12.17;7.07;;;;;;;;;;5011414;28;20037;-72
2023/06/15 02:20:08;;;;;;;16.52;7.60;;;;;;;;;;5016833;28;20220;-71
2023/06/15 02:22:36;;;;;;;12.65;7.30;;;;;;;;;;4980906;28;20060;-72
2023/06/15 02:25:07;;;;;;;12.55;6.72;;;;;;;;;;5030237;28;20037;-72
2023/06/15 02:27:35;;;;;;;13.23;7.68;;;;;;;;;;5019159;28;20121;-73
2023/06/15 02:30:03;;;;;;;14.03;7.97;;;;;;;;;;5017054;28;20049;-72
2023/06/15 02:32:34;;;;;;;13.20;7.55;;;;;;;;;;5009463;28;20033;-74
2023/06/15 02:35:04;;;;;;;12.32;6.85;;;;;;;;;;5010877;28;20119;-72
2023/06/15 02:37:34;;;;;;;14.18;7.22;;;;;;;;;;5015572;28;20065;-72
2023/06/15 02:40:03;;;;;;;12.35;6.75;;;;;;;;;;5013503;28;20044;-72
2023/06/15 02:42:31;;;;;;;12.80;6.77;;;;;;;;;;5018501;28;20041;-72
2023/06/15 02:44:59;;;;;;;12.43;6.95;;;;;;;;;;5020246;28;20044;-71
2023/06/15 02:47:27;;;;;;;11.32;7.13;;;;;;;;;;5016548;28;20037;-73
2023/06/15 02:49:58;;;;;;;10.65;6.95;;;;;;;;;;5018437;28;20123;-73
2023/06/15 02:52:26;;;;;;;11.73;7.32;;;;;;;;;;4997592;28;21225;-72
2023/06/15 02:54:55;;;;;;;10.83;7.10;;;;;;;;;;5017630;28;20033;-73
2023/06/15 02:57:24;;;;;;;11.15;6.35;;;;;;;;;;5015928;28;20115;-73
2023/06/15 02:59:52;;;;;;;11.23;6.45;;;;;;;;;;5005568;28;20040;-73
2023/06/15 03:02:20;;;;;;;12.52;7.22;;;;;;;;;;5027507;28;20045;-73
2023/06/15 03:04:50;;;;;;;17.50;6.85;;;;;;;;;;4990791;28;20033;-73
2023/06/15 03:07:20;;;;;;;15.03;7.13;;;;;;;;;;5017585;28;20072;-71
2023/06/15 03:09:48;;;;;;;10.68;6.95;;;;;;;;;;5017040;28;20049;-74
2023/06/15 03:12:21;;;;;;;13.13;6.65;;;;;;;;;;5014501;28;20063;-73
2023/06/15 03:14:51;;;;;;;10.60;6.88;;;;;;;;;;5029550;28;20030;-74
2023/06/15 03:17:21;;;;;;;10.45;6.25;;;;;;;;;;5019406;28;20494;-72
2023/06/15 03:19:49;;;;;;;13.43;7.00;;;;;;;;;;5018207;28;20025;-73
2023/06/15 03:22:17;;;;;;;11.60;6.78;;;;;;;;;;5015129;28;20052;-73
2023/06/15 03:24:49;;;;;;;12.63;7.07;;;;;;;;;;5036935;28;20815;-73
2023/06/15 03:27:18;;;;;;;14.18;7.75;;;;;;;;;;5017238;28;20514;-74
2023/06/15 03:29:49;;;;;;;11.98;6.40;;;;;;;;;;5009942;28;20055;-72
2023/06/15 03:32:17;;;;;;;16.30;7.23;;;;;;;;;;5006759;28;20045;-73
2023/06/15 03:34:45;;;;;;;13.02;7.25;;;;;;;;;;5018874;28;20050;-73
2023/06/15 03:37:14;;;;;;;13.13;7.35;;;;;;;;;;4977786;28;24554;-73
2023/06/15 03:39:42;;;;;;;13.93;6.95;;;;;;;;;;5028960;28;20423;-73
2023/06/15 03:42:10;;;;;;;11.15;7.03;;;;;;;;;;5028892;28;20494;-73
2023/06/15 03:44:39;;;;;;;13.23;6.50;;;;;;;;;;5011615;28;20040;-72
2023/06/15 03:47:07;;;;;;;11.15;6.88;;;;;;;;;;5023064;28;20033;-72
2023/06/15 03:49:35;;;;;;;14.35;7.32;;;;;;;;;;5012182;28;20029;-72
2023/06/15 03:52:03;;;;;;;13.02;7.32;;;;;;;;;;5002041;28;20029;-70
2023/06/15 03:54:32;;;;;;;12.90;7.15;;;;;;;;;;5006990;28;20045;-72
2023/06/15 03:57:00;;;;;;;10.67;6.97;;;;;;;;;;5028008;28;20131;-71
2023/06/15 03:59:28;;;;;;;12.18;6.70;;;;;;;;;;5022045;28;20049;-72
2023/06/15 04:01:57;;;;;;;13.85;6.63;;;;;;;;;;5009692;28;21148;-72
2023/06/15 04:04:25;;;;;;;12.60;7.07;;;;;;;;;;5029783;28;20071;-73
2023/06/15 04:06:55;;;;;;;11.85;7.35;;;;;;;;;;5013346;28;20065;-71
2023/06/15 04:09:23;;;;;;;15.07;7.60;;;;;;;;;;5019499;28;20463;-73
2023/06/15 04:11:51;;;;;;;16.05;8.05;;;;;;;;;;5021377;28;20040;-74
2023/06/15 04:14:19;;;;;;;12.38;7.55;;;;;;;;;;5015218;28;20045;-73
2023/06/15 04:16:47;;;;;;;13.55;8.25;;;;;;;;;;5019629;28;20518;-72
2023/06/15 04:19:16;;;;;;;16.50;8.80;;;;;;;;;;5014497;28;20653;-74
2023/06/15 04:21:44;;;;;;;14.67;8.57;;;;;;;;;;5031105;28;20052;-72
2023/06/15 04:24:12;;;;;;;14.68;8.68;;;;;;;;;;5006350;28;20761;-73
2023/06/15 04:26:41;;;;;;;18.13;9.48;;;;;;;;;;5021886;28;20040;-74
2023/06/15 04:29:09;;;;;;;14.63;8.68;;;;;;;;;;5019379;28;20069;-72
2023/06/15 04:31:40;;;;;;;18.63;8.35;;;;;;;;;;5015096;28;20114;-72
2023/06/15 04:34:07;;;;;;;13.33;8.70;;;;;;;;;;5012411;28;20033;-73
2023/06/15 04:36:38;;;;;;;14.02;8.38;;;;;;;;;;5032193;28;20040;-74
2023/06/15 04:39:07;;;;;;;19.65;8.52;;;;;;;;;;5018811;28;20072;-73
2023/06/15 04:41:35;;;;;;;16.55;9.00;;;;;;;;;;5017330;28;20041;-73
2023/06/15 04:44:03;;;;;;;16.50;8.90;;;;;;;;;;5025255;28;20128;-73
2023/06/15 04:46:30;;;;;;;19.57;8.90;;;;;;;;;;5023769;28;20462;-74
2023/06/15 04:48:58;;;;;;;19.17;10.07;;;;;;;;;;5011416;28;20509;-73
2023/06/15 04:51:26;;;;;;;15.13;9.18;;;;;;;;;;5024559;28;20049;-67
2023/06/15 04:53:56;;;;;;;17.25;9.52;;;;;;;;;;5008967;28;20041;-73
2023/06/15 04:56:26;;;;;;;16.27;10.07;;;;;;;;;;5015601;28;20127;-73
2023/06/15 04:58:54;;;;;;;13.83;8.87;;;;;;;;;;5015914;28;20052;-72
2023/06/15 05:01:22;;;;;;;15.30;9.20;;;;;;;;;;5011343;28;20400;-72
2023/06/15 05:03:50;;;;;;;16.38;9.65;;;;;;;;;;5012469;28;20049;-73
2023/06/15 05:06:17;;;;;;;15.10;9.20;;;;;;;;;;5009910;28;20065;-71
2023/06/15 05:08:45;;;;;;;15.73;9.80;;;;;;;;;;5020011;28;20071;-73
2023/06/15 05:11:15;;;;;;;19.67;10.13;;;;;;;;;;5001692;28;20037;-73
2023/06/15 05:13:42;;;;;;;15.70;9.15;;;;;;;;;;5022872;28;20399;-74
2023/06/15 05:16:10;;;;;;;14.55;9.30;;;;;;;;;;5014837;28;20044;-72
2023/06/15 05:18:38;;;;;;;13.40;9.82;;;;;;;;;;5024101;28;20506;-72
2023/06/15 05:21:07;;;;;;;17.00;9.32;;;;;;;;;;5008884;28;20067;-71
2023/06/15 05:23:38;;;;;;;18.33;9.47;;;;;;;;;;5023976;28;20429;-73
2023/06/15 05:26:06;;;;;;;18.35;10.13;;;;;;;;;;5008414;28;20408;-63
2023/06/15 05:28:55;;;;;;;15.95;9.25;;;;;;;;;;5019071;28;20098;-71
2023/06/15 05:31:23;;;;;;;14.60;9.38;;;;;;;;;;5015663;28;20041;-72
2023/06/15 05:33:51;;;;;;;18.08;10.13;;;;;;;;;;5006910;28;20643;-72
2023/06/15 05:36:19;;;;;;;18.10;9.87;;;;;;;;;;5021959;28;20141;-72
2023/06/15 05:39:09;;;;;;;16.05;9.60;;;;;;;;;;5012995;28;20517;-72
2023/06/15 05:41:38;;;;;;;14.15;8.80;;;;;;;;;;5018684;28;20049;-72
2023/06/15 05:44:09;;;;;;;17.50;9.30;;;;;;;;;;5017847;28;20040;-75
2023/06/15 05:46:37;;;;;;;14.90;8.57;;;;;;;;;;5026515;28;20041;-74
2023/06/15 05:49:05;;;;;;;17.60;9.33;;;;;;;;;;5006452;28;20199;-74
2023/06/15 05:51:35;;;;;;;16.67;9.88;;;;;;;;;;5017974;28;20037;-72
2023/06/15 05:54:03;;;;;;;14.95;8.80;;;;;;;;;;5023367;28;20499;-73
2023/06/15 05:56:31;;;;;;;18.60;9.23;;;;;;;;;;5005596;28;20040;-72
2023/06/15 05:58:58;;;;;;;15.45;8.75;;;;;;;;;;5026464;28;20040;-73
2023/06/15 06:01:28;;;;;;;15.47;8.57;;;;;;;;;;5013700;28;20076;-73
2023/06/15 06:03:56;;;;;;;13.98;8.93;;;;;;;;;;5013296;28;20052;-74
2023/06/15 06:06:23;;;;;;;15.48;8.50;;;;;;;;;;5018556;28;20497;-74
2023/06/15 06:08:51;;;;;;;13.63;8.57;;;;;;;;;;5026979;28;20124;-74
2023/06/15 06:11:19;;;;;;;16.77;8.43;;;;;;;;;;5010621;28;22218;-73
2023/06/15 06:13:47;;;;;;;13.60;7.57;;;;;;;;;;5015080;28;20048;-73
2023/06/15 06:16:14;;;;;;;15.48;8.35;;;;;;;;;;5011992;28;20033;-73
2023/06/15 06:18:44;;;;;;;15.68;9.05;;;;;;;;;;5014365;28;20039;-73
2023/06/15 06:21:12;;;;;;;13.52;8.30;;;;;;;;;;5010539;28;20107;-75
2023/06/15 06:23:40;;;;;;;14.40;8.57;;;;;;;;;;5030016;28;20406;-72
2023/06/15 06:26:08;;;;;;;14.67;7.80;;;;;;;;;;5013135;28;20052;-73
2023/06/15 06:28:36;;;;;;;15.30;7.90;;;;;;;;;;5025114;28;20041;-72
2023/06/15 06:31:04;;;;;;;15.27;8.40;;;;;;;;;;5016719;28;20044;-74
2023/06/15 06:33:32;;;;;;;15.05;7.88;;;;;;;;;;5023202;28;20071;-72
2023/06/15 06:36:02;;;;;;;12.98;7.45;;;;;;;;;;5015323;28;20128;-71
2023/06/15 06:38:32;;;;;;;15.27;7.50;;;;;;;;;;5018805;28;20514;-72
2023/06/15 06:41:00;;;;;;;14.30;7.88;;;;;;;;;;5024618;28;20037;-74
2023/06/15 06:43:28;;;;;;;16.63;7.40;;;;;;;;;;5007600;28;20575;-73
2023/06/15 06:45:56;;;;;;;13.20;7.25;;;;;;;;;;5016804;28;20552;-73
2023/06/15 06:48:24;;;;;;;15.88;7.03;;;;;;;;;;5012202;28;20204;-75
2023/06/15 06:50:52;;;;;;;13.47;7.40;;;;;;;;;;5031702;28;20052;-73
2023/06/15 06:53:21;;;;;;;15.27;7.03;;;;;;;;;;5007543;28;20045;-74
2023/06/15 06:55:49;;;;;;;15.07;6.55;;;;;;;;;;5030883;28;20372;-74
2023/06/15 06:58:18;;;;;;;13.38;6.95;;;;;;;;;;5012691;28;20143;-73
2023/06/15 07:00:45;;;;;;;12.95;7.05;;;;;;;;;;5019516;28;20039;-74
2023/06/15 07:03:13;;;;;;;14.23;6.73;;;;;;;;;;5011410;28;20025;-73
2023/06/15 07:05:41;;;;;;;13.98;6.82;;;;;;;;;;5016009;28;20049;-74
2023/06/15 07:08:08;;;;;;;9.95;6.28;;;;;;;;;;5006965;28;20371;-74
2023/06/15 07:10:37;;;;;;;11.75;6.95;;;;;;;;;;5026140;28;20048;-73
2023/06/15 07:13:05;;;;;;;11.90;6.50;;;;;;;;;;5000751;28;20574;-73
2023/06/15 07:15:33;;;;;;;10.90;6.00;;;;;;;;;;5010539;28;20119;-74
2023/06/15 07:18:01;;;;;;;13.23;5.97;;;;;;;;;;5004563;28;20052;-72
2023/06/15 07:20:28;;;;;;;10.73;6.05;;;;;;;;;;5011066;28;20044;-73
2023/06/15 07:22:56;;;;;;;13.35;6.50;;;;;;;;;;5010582;28;20048;-72
2023/06/15 07:25:24;;;;;;;11.27;6.05;;;;;;;;;;5006472;28;20040;-73
2023/06/15 07:27:53;;;;;;;17.03;6.40;;;;;;;;;;5025546;28;20145;-73
2023/06/15 07:30:21;;;;;;;12.57;6.35;;;;;;;;;;5001692;28;20041;-73
2023/06/15 07:32:49;;;;;;;14.68;6.00;;;;;;;;;;5019169;28;20038;-73
2023/06/15 07:35:18;;;;;;;13.38;6.13;;;;;;;;;;5000976;28;20046;-73
2023/06/15 07:37:46;;;;;;;12.82;6.03;;;;;;;;;;5022503;28;20072;-64
2023/06/15 07:40:13;;;;;;;11.63;5.73;;;;;;;;;;5002472;28;20546;-71
2023/06/15 07:42:42;;;;;;;12.25;6.30;;;;;;;;;;5002671;28;20051;-71
2023/06/15 07:45:11;;;;;;;10.68;5.43;;;;;;;;;;5007017;28;20064;-71
2023/06/15 07:47:40;;;;;;;10.07;5.80;;;;;;;;;;5019669;28;20037;-71
2023/06/15 07:50:08;;;;;;;9.35;5.78;;;;;;;;;;5013234;28;20065;-71
2023/06/15 07:52:36;;;;;;;13.63;5.73;;;;;;;;;;5015458;28;20041;-70
2023/06/15 07:55:04;;;;;;;11.30;5.10;;;;;;;;;;5018174;28;20025;-71
2023/06/15 07:57:32;;;;;;;11.15;5.40;;;;;;;;;;5027716;28;20045;-70
2023/06/15 08:00:01;;;;;;;10.13;5.75;;;;;;;;;;5005939;28;20693;-70
2023/06/15 08:02:30;;;;;;;9.70;4.85;;;;;;;;;;5021913;28;20041;-70
2023/06/15 08:04:58;;;;;;;11.83;5.60;;;;;;;;;;5017746;28;20040;-70
2023/06/15 08:07:25;;;;;;;9.30;4.88;;;;;;;;;;5033113;28;20045;-70
2023/06/15 08:09:53;;;;;;;10.88;5.25;;;;;;;;;;5010270;28;20045;-70
2023/06/15 08:12:21;;;;;;;10.95;4.78;;;;;;;;;;5024868;28;20051;-70
2023/06/15 08:14:49;;;;;;;8.90;5.40;;;;;;;;;;5019570;28;20048;-69
2023/06/15 08:17:17;;;;;;;9.53;5.20;;;;;;;;;;5014485;28;20056;-71
2023/06/15 08:19:47;;;;;;;11.63;5.00;;;;;;;;;;5008307;28;20048;-70
2023/06/15 08:22:15;;;;;;;10.65;5.70;;;;;;;;;;4971143;28;20041;-70
2023/06/15 08:24:42;;;;;;;9.10;4.40;;;;;;;;;;4999581;28;20037;-70
2023/06/15 08:27:11;;;;;;;9.90;4.43;;;;;;;;;;5004122;28;21232;-71
2023/06/15 08:29:43;;;;;;;8.13;4.80;;;;;;;;;;5010682;28;20049;-69
2023/06/15 08:32:13;;;;;;;11.73;4.70;;;;;;;;;;4986265;28;20500;-71
2023/06/15 08:34:41;;;;;;;11.98;5.00;;;;;;;;;;5012489;28;20045;-70
2023/06/15 08:37:11;;;;;;;9.45;4.60;;;;;;;;;;4995352;28;20137;-69
2023/06/15 08:39:39;;;;;;;10.57;4.63;;;;;;;;;;5010854;28;20053;-70
2023/06/15 08:42:07;;;;;;;9.43;3.87;;;;;;;;;;4999502;28;20037;-69
2023/06/15 08:44:35;;;;;;;8.80;4.07;;;;;;;;;;5008513;28;20044;-69
2023/06/15 08:47:04;;;;;;;9.70;4.40;;;;;;;;;;5002774;28;20632;-69
2023/06/15 08:49:32;;;;;;;7.60;3.90;;;;;;;;;;5013651;28;20048;-69
2023/06/15 08:52:00;;;;;;;13.20;4.50;;;;;;;;;;5003633;28;20055;-69
2023/06/15 08:54:31;;;;;;;8.57;3.57;;;;;;;;;;5010667;28;20045;-69
2023/06/15 08:56:59;;;;;;;10.15;4.07;;;;;;;;;;5001176;28;20148;-69
2023/06/15 08:59:27;;;;;;;7.57;3.65;;;;;;;;;;5012129;28;20045;-69
2023/06/15 09:01:56;;;;;;;9.85;3.95;;;;;;;;;;4991829;28;20064;-69
2023/06/15 09:04:23;;;;;;;8.48;3.53;;;;;;;;;;5000693;28;20045;-69
2023/06/15 09:06:51;;;;;;;11.10;3.90;;;;;;;;;;5006774;28;20045;-69
2023/06/15 09:09:20;;;;;;;8.68;3.63;;;;;;;;;;5013282;28;20060;-69
2023/06/15 09:11:49;;;;;;;12.85;4.50;;;;;;;;;;4999419;28;20037;-69
2023/06/15 09:14:17;;;;;;;9.82;3.85;;;;;;;;;;4999253;28;20076;-70
2023/06/15 09:16:46;;;;;;;6.57;3.28;;;;;;;;;;5009586;28;20049;-69
2023/06/15 09:19:16;;;;;;;7.73;4.23;;;;;;;;;;5005417;28;20037;-70
2023/06/15 09:21:49;;;;;;;7.25;2.95;;;;;;;;;;4990974;28;20037;-69
2023/06/15 09:24:17;;;;;;;9.38;3.50;;;;;;;;;;4997152;28;21315;-69
2023/06/15 09:26:45;;;;;;;6.63;3.13;;;;;;;;;;5005408;28;20056;-69
2023/06/15 09:29:15;;;;;;;7.65;3.08;;;;;;;;;;4984965;28;20767;-69
2023/06/15 09:31:42;;;;;;;8.63;2.77;;;;;;;;;;5002809;28;20045;-70
2023/06/15 09:34:10;;;;;;;6.07;2.53;;;;;;;;;;4971926;28;20041;-69
2023/06/15 09:36:44;;;;;;;5.53;2.13;;;;;;;;;;5006977;28;20045;-69
2023/06/15 09:39:12;;;;;;;7.25;2.90;;;;;;;;;;5003306;28;20068;-69
2023/06/15 09:41:53;;;;;;;9.25;2.97;;;;;;;;;;5000415;28;20495;-70
2023/06/15 09:44:22;;;;;;;7.17;2.70;;;;;;;;;;5005121;28;20356;-69
2023/06/15 09:46:51;;;;;;;11.65;3.10;;;;;;;;;;5006577;28;20072;-69
2023/06/15 09:49:23;;;;;;;6.53;2.88;;;;;;;;;;5004309;28;20450;-69
2023/06/15 09:51:51;;;;;;;8.63;3.40;;;;;;;;;;5004206;28;20459;-69
2023/06/15 09:54:20;;;;;;;6.45;2.97;;;;;;;;;;4998424;28;20033;-70
2023/06/15 09:56:49;;;;;;;6.53;3.00;;;;;;;;;;5012093;28;20126;-68
2023/06/15 09:59:17;;;;;;;8.15;3.40;;;;;;;;;;5013590;28;20608;-71
2023/06/15 10:01:47;;;;;;;7.88;3.00;;;;;;;;;;4983767;28;20589;-72
2023/06/15 10:04:15;;;;;;;6.78;2.83;;;;;;;;;;5010235;28;20119;-72
2023/06/15 10:06:45;;;;;;;7.65;3.45;;;;;;;;;;5005257;28;20032;-71
2023/06/15 10:09:16;;;;;;;7.33;2.87;;;;;;;;;;5006747;28;20044;-72
2023/06/15 10:11:44;;;;;;;6.72;3.00;;;;;;;;;;4990711;28;20131;-72
2023/06/15 10:14:16;;;;;;;6.95;3.08;;;;;;;;;;5010365;28;20036;-71
2023/06/15 10:16:45;;;;;;;7.75;3.08;;;;;;;;;;5003085;28;20053;-72
2023/06/15 10:19:15;;;;;;;8.38;3.00;;;;;;;;;;4987689;28;20072;-72
2023/06/15 10:21:45;;;;;;;6.13;2.57;;;;;;;;;;5004947;28;20041;-72
2023/06/15 10:24:13;;;;;;;6.82;2.80;;;;;;;;;;4996161;28;20049;-73
2023/06/15 10:26:42;;;;;;;7.70;2.95;;;;;;;;;;4998145;28;20099;-71
2023/06/15 10:29:13;;;;;;;6.18;2.80;;;;;;;;;;4993700;28;20045;-73
2023/06/15 10:31:44;;;;;;;8.25;2.70;;;;;;;;;;4995345;28;20056;-72
2023/06/15 10:34:19;;;;;;;5.80;2.83;;;;;;;;;;5002471;28;20529;-72
2023/06/15 10:36:50;;;;;;;7.60;2.80;;;;;;;;;;5009969;28;20041;-71
2023/06/15 10:39:21;;;;;;;6.28;2.42;;;;;;;;;;5003151;28;20055;-72
2023/06/15 10:41:52;;;;;;;6.88;3.05;;;;;;;;;;4993365;28;20301;-74
2023/06/15 10:44:20;;;;;;;8.15;3.50;;;;;;;;;;5003255;28;20044;-74
2023/06/15 10:47:05;;;;;;;7.07;2.50;;;;;;;;;;5011710;28;21022;-74
2023/06/15 10:49:34;;;;;;;5.70;2.67;;;;;;;;;;4998707;28;20033;-73
2023/06/15 10:52:03;;;;;;;10.20;2.55;;;;;;;;;;4989503;28;20036;-73
2023/06/15 10:54:31;;;;;;;6.40;2.63;;;;;;;;;;5011966;28;20058;-73
2023/06/15 10:57:00;;;;;;;7.28;3.10;;;;;;;;;;5004236;28;20166;-73
2023/06/15 10:59:38;;;;;;;6.30;2.70;;;;;;;;;;5004675;28;20073;-75
2023/06/15 11:02:26;;;;;;;7.97;3.38;;;;;;;;;;4991156;28;20748;-74
2023/06/15 11:05:00;;;;;;;8.07;3.00;;;;;;;;;;5004526;28;20265;-76
2023/06/15 11:07:29;;;;;;;6.68;3.10;;;;;;;;;;5009420;28;20048;-75
2023/06/15 11:09:57;;;;;;;7.10;2.90;;;;;;;;;;5002917;28;20479;-75
2023/06/15 11:12:36;;;;;;;6.20;3.37;;;;;;;;;;5000647;28;20096;-74
2023/06/15 11:15:05;;;;;;;7.53;3.13;;;;;;;;;;5003371;28;20430;-73
2023/06/15 11:17:53;;;;;;;9.02;3.47;;;;;;;;;;5001440;28;20111;-73
2023/06/15 11:20:39;;;;;;;5.32;2.92;;;;;;;;;;4992035;28;20168;-73
2023/06/15 11:23:10;;;;;;;7.85;3.72;;;;;;;;;;5001220;28;20124;-72
2023/06/15 11:25:38;;;;;;;6.60;3.27;;;;;;;;;;4992364;28;21809;-73
2023/06/15 11:28:07;;;;;;;6.35;3.42;;;;;;;;;;5021353;28;20073;-73
2023/06/15 11:30:38;;;;;;;9.25;3.30;;;;;;;;;;5014062;28;20033;-73
2023/06/15 11:33:06;;;;;;;10.30;4.07;;;;;;;;;;5019565;28;20108;-73
2023/06/15 11:35:34;;;;;;;7.03;3.63;;;;;;;;;;5004237;28;20351;-73
2023/06/15 11:38:02;;;;;;;8.27;3.73;;;;;;;;;;5024593;28;20053;-72
2023/06/15 11:40:31;;;;;;;6.10;2.53;;;;;;;;;;5011682;28;20080;-72
2023/06/15 11:42:59;;;;;;;6.97;2.67;;;;;;;;;;5033240;28;20048;-72
2023/06/15 11:45:28;;;;;;;11.95;4.10;;;;;;;;;;5019250;28;20118;-72
2023/06/15 11:47:55;;;;;;;9.00;3.75;;;;;;;;;;5024386;28;20099;-72
2023/06/15 11:50:23;;;;;;;10.50;4.37;;;;;;;;;;5022729;28;20044;-72
2023/06/15 11:52:51;;;;;;;7.32;4.10;;;;;;;;;;5017869;28;20563;-72
2023/06/15 11:55:19;;;;;;;8.45;3.85;;;;;;;;;;5016242;28;20033;-72
2023/06/15 11:57:48;;;;;;;8.88;3.70;;;;;;;;;;5031832;28;20041;-69
2023/06/15 12:00:17;;;;;;;9.45;4.07;;;;;;;;;;5011266;28;20307;-73
2023/06/15 12:02:50;;;;;;;6.53;3.00;;;;;;;;;;5013279;28;20037;-71
2023/06/15 12:05:19;;;;;;;8.40;3.55;;;;;;;;;;5026157;28;20037;-71
2023/06/15 12:07:47;;;;;;;6.35;2.95;;;;;;;;;;5014747;28;20055;-71
2023/06/15 12:10:17;;;;;;;6.88;3.35;;;;;;;;;;5022630;28;20509;-71
2023/06/15 12:12:50;;;;;;;9.60;3.92;;;;;;;;;;5019085;28;20040;-70
2023/06/15 12:15:18;;;;;;;4.90;2.20;;;;;;;;;;5007906;28;20045;-71
2023/06/15 12:17:46;;;;;;;5.57;2.92;;;;;;;;;;5015059;28;20452;-72
2023/06/15 12:20:14;;;;;;;10.00;3.65;;;;;;;;;;5013449;28;20116;-71
2023/06/15 12:22:43;;;;;;;9.15;4.07;;;;;;;;;;5022766;28;20128;-71
2023/06/15 12:25:11;;;;;;;6.80;3.58;;;;;;;;;;5009202;28;20055;-71
2023/06/15 12:27:42;;;;;;;8.37;4.03;;;;;;;;;;5001065;28;20041;-73
2023/06/15 12:30:15;;;;;;;10.40;3.85;;;;;;;;;;5028917;28;20033;-72
2023/06/15 12:32:44;;;;;;;9.30;4.07;;;;;;;;;;5003605;28;20046;-75
2023/06/15 12:35:29;;;;;;;13.35;4.65;;;;;;;;;;5009153;28;20482;-73
2023/06/15 12:37:57;;;;;;;9.05;4.63;;;;;;;;;;5016333;28;20044;-72
2023/06/15 12:40:25;;;;;;;9.57;3.70;;;;;;;;;;5016948;28;20063;-75
2023/06/15 12:42:57;;;;;;;15.02;5.47;;;;;;;;;;5019052;28;20040;-74
2023/06/15 12:45:26;;;;;;;9.82;4.45;;;;;;;;;;5005067;28;20491;-74
2023/06/15 12:47:54;;;;;;;11.18;4.32;;;;;;;;;;5015345;28;20068;-74
2023/06/15 12:50:22;;;;;;;8.88;4.10;;;;;;;;;;5021903;28;20087;-73
2023/06/15 12:52:50;;;;;;;9.63;4.77;;;;;;;;;;5021901;28;20407;-75
2023/06/15 12:55:18;;;;;;;7.63;4.28;;;;;;;;;;5012709;28;20044;-74
2023/06/15 12:57:45;;;;;;;8.45;4.40;;;;;;;;;;5016644;28;20040;-74
2023/06/15 13:00:14;;;;;;;10.52;4.22;;;;;;;;;;5015560;28;20148;-74
2023/06/15 13:02:43;;;;;;;7.50;3.80;;;;;;;;;;5020484;28;20559;-74
2023/06/15 13:05:11;;;;;;;6.70;4.00;;;;;;;;;;4997308;28;20063;-74
2023/06/15 13:07:39;;;;;;;8.98;4.53;;;;;;;;;;5033839;28;20496;-74
2023/06/15 13:10:08;;;;;;;9.05;3.97;;;;;;;;;;5016748;28;20128;-72
2023/06/15 13:12:36;;;;;;;7.97;3.90;;;;;;;;;;5006679;28;20044;-72
2023/06/15 13:15:05;;;;;;;8.55;4.15;;;;;;;;;;5025692;28;20044;-69
2023/06/15 13:17:35;;;;;;;7.93;4.20;;;;;;;;;;5015112;28;20495;-75
2023/06/15 13:20:05;;;;;;;7.07;4.10;;;;;;;;;;5019956;28;20084;-73
2023/06/15 13:22:34;;;;;;;8.30;3.78;;;;;;;;;;5017458;28;20052;-77
2023/06/15 13:25:04;;;;;;;7.63;4.22;;;;;;;;;;5015443;28;20037;-72
2023/06/15 13:27:37;;;;;;;8.00;3.63;;;;;;;;;;5029602;28;20059;-72
2023/06/15 13:30:06;;;;;;;14.50;4.07;;;;;;;;;;5016312;28;20099;-72
2023/06/15 13:32:34;;;;;;;10.57;3.95;;;;;;;;;;5008334;28;20037;-72
2023/06/15 13:35:02;;;;;;;7.68;3.25;;;;;;;;;;5015366;28;20172;-66
2023/06/15 13:37:32;;;;;;;8.25;3.95;;;;;;;;;;5008025;28;20638;-72
2023/06/15 13:40:06;;;;;;;7.45;3.45;;;;;;;;;;5018037;28;20060;-73
2023/06/15 13:42:35;;;;;;;8.00;4.03;;;;;;;;;;5022967;28;20487;-70
2023/06/15 13:45:06;;;;;;;7.85;3.80;;;;;;;;;;5017001;28;20079;-70
2023/06/15 13:47:35;;;;;;;7.13;4.00;;;;;;;;;;5028578;28;20041;-71
2023/06/15 13:50:03;;;;;;;7.80;4.30;;;;;;;;;;5005939;28;20044;-71
2023/06/15 13:52:33;;;;;;;4.72;1.42;;;;;;;;;;5003578;28;20037;-69
2023/06/15 13:55:00;;;;;;;6.47;3.10;;;;;;;;;;5015360;28;20494;-70
2023/06/15 13:57:34;;;;;;;12.88;3.60;;;;;;;;;;5018696;28;20053;-65
2023/06/15 14:00:03;;;;;;;7.30;4.20;;;;;;;;;;5017055;28;20905;-71
2023/06/15 14:02:31;;;;;;;8.63;3.75;;;;;;;;;;5026143;28;20040;-71
2023/06/15 14:04:59;;;;;;;5.88;2.78;;;;;;;;;;5002252;28;20196;-71
2023/06/15 14:07:27;;;;;;;10.73;4.67;;;;;;;;;;5015818;28;20041;-71
2023/06/15 14:09:56;;;;;;;9.10;2.75;;;;;;;;;;5014028;28;20505;-72
2023/06/15 14:12:24;;;;;;;10.45;3.58;;;;;;;;;;5003898;28;20041;-71
2023/06/15 14:14:51;;;;;;;9.27;4.10;;;;;;;;;;5019794;28;20037;-71
2023/06/15 14:17:19;;;;;;;7.05;3.47;;;;;;;;;;5018929;28;20041;-71
2023/06/15 14:19:47;;;;;;;5.93;3.30;;;;;;;;;;5023444;28;20091;-73
2023/06/15 14:22:15;;;;;;;7.35;3.83;;;;;;;;;;5018051;28;20487;-71
2023/06/15 14:24:43;;;;;;;7.60;3.97;;;;;;;;;;5025090;28;20037;-70
2023/06/15 14:27:13;;;;;;;9.65;4.10;;;;;;;;;;5025318;28;20040;-71
2023/06/15 14:29:45;;;;;;;7.78;4.05;;;;;;;;;;5017521;28;20438;-68
2023/06/15 14:32:14;;;;;;;6.33;3.57;;;;;;;;;;5010079;28;20041;-68
2023/06/15 14:34:43;;;;;;;7.47;3.35;;;;;;;;;;5028691;28;20414;-69
2023/06/15 14:37:11;;;;;;;6.70;3.13;;;;;;;;;;5009914;28;20071;-70
2023/06/15 14:39:39;;;;;;;6.13;3.60;;;;;;;;;;5025554;28;20065;-71
2023/06/15 14:42:07;;;;;;;6.85;4.03;;;;;;;;;;5010539;28;20033;-71
2023/06/15 14:44:38;;;;;;;8.10;3.57;;;;;;;;;;5020687;28;20384;-70
2023/06/15 14:47:07;;;;;;;6.97;3.72;;;;;;;;;;5020417;28;20041;-66